sensor_id;sensor_type;location;lat;lon;timestamp;P1;durP1;ratioP1;P2;durP2;ratioP2
11338;SDS011;5724;42.684;23.252;2024-02-26T00:00:34;25.63;;;21.57;;
11338;SDS011;5724;42.684;23.252;2024-02-26T00:03:00;24.92;;;21.80;;
11338;SDS011;5724;42.684;23.252;2024-02-26T00:05:26;26.02;;;22.23;;
11338;SDS011;5724;42.684;23.252;2024-02-26T00:07:52;26.15;;;23.40;;
11338;SDS011;5724;42.684;23.252;2024-02-26T00:10:17;28.30;;;22.98;;
11338;SDS011;5724;42.684;23.252;2024-02-26T00:12:43;26.95;;;23.30;;
11338;SDS011;5724;42.684;23.252;2024-02-26T00:15:09;25.77;;;23.02;;
11338;SDS011;5724;42.684;23.252;2024-02-26T00:17:35;27.17;;;24.30;;
11338;SDS011;5724;42.684;23.252;2024-02-26T00:20:01;28.08;;;25.05;;
11338;SDS011;5724;42.684;23.252;2024-02-26T00:22:31;25.08;;;22.58;;
11338;SDS011;5724;42.684;23.252;2024-02-26T00:24:58;26.70;;;23.55;;
11338;SDS011;5724;42.684;23.252;2024-02-26T00:27:23;25.70;;;22.97;;
11338;SDS011;5724;42.684;23.252;2024-02-26T00:29:49;29.70;;;24.25;;
11338;SDS011;5724;42.684;23.252;2024-02-26T00:32:14;28.13;;;23.53;;
11338;SDS011;5724;42.684;23.252;2024-02-26T00:34:40;25.40;;;22.70;;
11338;SDS011;5724;42.684;23.252;2024-02-26T00:37:05;24.27;;;21.77;;
11338;SDS011;5724;42.684;23.252;2024-02-26T00:39:31;25.10;;;21.37;;
11338;SDS011;5724;42.684;23.252;2024-02-26T00:41:56;24.63;;;21.73;;
11338;SDS011;5724;42.684;23.252;2024-02-26T00:44:22;23.33;;;20.90;;
11338;SDS011;5724;42.684;23.252;2024-02-26T00:46:47;23.65;;;21.38;;
11338;SDS011;5724;42.684;23.252;2024-02-26T00:49:13;24.37;;;21.77;;
11338;SDS011;5724;42.684;23.252;2024-02-26T00:51:38;26.40;;;21.87;;
11338;SDS011;5724;42.684;23.252;2024-02-26T00:54:04;23.20;;;20.90;;
11338;SDS011;5724;42.684;23.252;2024-02-26T00:56:29;26.55;;;22.48;;
11338;SDS011;5724;42.684;23.252;2024-02-26T00:58:55;23.05;;;20.60;;
11338;SDS011;5724;42.684;23.252;2024-02-26T01:01:20;26.77;;;22.15;;
11338;SDS011;5724;42.684;23.252;2024-02-26T01:03:46;24.75;;;22.15;;
11338;SDS011;5724;42.684;23.252;2024-02-26T01:06:12;25.00;;;22.30;;
11338;SDS011;5724;42.684;23.252;2024-02-26T01:08:38;24.33;;;21.65;;
11338;SDS011;5724;42.684;23.252;2024-02-26T01:11:04;24.75;;;22.25;;
11338;SDS011;5724;42.684;23.252;2024-02-26T01:13:30;26.53;;;23.60;;
11338;SDS011;5724;42.684;23.252;2024-02-26T01:15:55;26.07;;;23.20;;
11338;SDS011;5724;42.684;23.252;2024-02-26T01:18:21;26.10;;;23.17;;
11338;SDS011;5724;42.684;23.252;2024-02-26T01:20:48;25.23;;;22.40;;
11338;SDS011;5724;42.684;23.252;2024-02-26T01:23:13;27.37;;;22.90;;
11338;SDS011;5724;42.684;23.252;2024-02-26T01:25:39;26.53;;;23.80;;
11338;SDS011;5724;42.684;23.252;2024-02-26T01:28:05;26.63;;;23.77;;
11338;SDS011;5724;42.684;23.252;2024-02-26T01:30:31;29.97;;;23.23;;
11338;SDS011;5724;42.684;23.252;2024-02-26T01:32:57;26.23;;;23.43;;
11338;SDS011;5724;42.684;23.252;2024-02-26T01:35:22;25.07;;;22.47;;
11338;SDS011;5724;42.684;23.252;2024-02-26T01:37:48;25.53;;;22.13;;
11338;SDS011;5724;42.684;23.252;2024-02-26T01:40:13;24.70;;;22.10;;
11338;SDS011;5724;42.684;23.252;2024-02-26T01:42:43;24.80;;;22.17;;
11338;SDS011;5724;42.684;23.252;2024-02-26T01:45:18;25.77;;;23.03;;
11338;SDS011;5724;42.684;23.252;2024-02-26T01:47:50;26.15;;;23.05;;
11338;SDS011;5724;42.684;23.252;2024-02-26T01:50:16;25.97;;;22.40;;
11338;SDS011;5724;42.684;23.252;2024-02-26T01:52:43;25.60;;;22.00;;
11338;SDS011;5724;42.684;23.252;2024-02-26T01:55:11;25.83;;;23.13;;
11338;SDS011;5724;42.684;23.252;2024-02-26T01:57:39;27.42;;;22.98;;
11338;SDS011;5724;42.684;23.252;2024-02-26T02:00:06;25.40;;;22.80;;
11338;SDS011;5724;42.684;23.252;2024-02-26T02:02:33;27.57;;;24.00;;
11338;SDS011;5724;42.684;23.252;2024-02-26T02:04:59;26.90;;;23.63;;
11338;SDS011;5724;42.684;23.252;2024-02-26T02:07:25;30.73;;;23.38;;
11338;SDS011;5724;42.684;23.252;2024-02-26T02:09:51;25.52;;;22.77;;
11338;SDS011;5724;42.684;23.252;2024-02-26T02:12:18;26.48;;;23.50;;
11338;SDS011;5724;42.684;23.252;2024-02-26T02:14:44;24.93;;;22.43;;
11338;SDS011;5724;42.684;23.252;2024-02-26T02:17:10;25.92;;;23.40;;
11338;SDS011;5724;42.684;23.252;2024-02-26T02:19:35;25.73;;;22.67;;
11338;SDS011;5724;42.684;23.252;2024-02-26T02:22:01;24.58;;;21.90;;
11338;SDS011;5724;42.684;23.252;2024-02-26T02:24:27;27.00;;;23.23;;
11338;SDS011;5724;42.684;23.252;2024-02-26T02:26:52;24.93;;;22.43;;
11338;SDS011;5724;42.684;23.252;2024-02-26T02:29:19;26.10;;;22.73;;
11338;SDS011;5724;42.684;23.252;2024-02-26T02:31:44;27.13;;;24.25;;
11338;SDS011;5724;42.684;23.252;2024-02-26T02:34:10;28.47;;;25.00;;
11338;SDS011;5724;42.684;23.252;2024-02-26T02:36:47;29.42;;;24.63;;
11338;SDS011;5724;42.684;23.252;2024-02-26T02:39:15;27.60;;;24.30;;
11338;SDS011;5724;42.684;23.252;2024-02-26T02:41:40;25.83;;;23.02;;
11338;SDS011;5724;42.684;23.252;2024-02-26T02:44:06;26.90;;;23.95;;
11338;SDS011;5724;42.684;23.252;2024-02-26T02:46:31;27.93;;;24.87;;
11338;SDS011;5724;42.684;23.252;2024-02-26T02:48:58;27.05;;;24.17;;
11338;SDS011;5724;42.684;23.252;2024-02-26T02:51:24;26.92;;;23.95;;
11338;SDS011;5724;42.684;23.252;2024-02-26T02:53:49;29.90;;;24.98;;
11338;SDS011;5724;42.684;23.252;2024-02-26T02:56:15;26.50;;;23.70;;
11338;SDS011;5724;42.684;23.252;2024-02-26T02:58:42;27.10;;;24.27;;
11338;SDS011;5724;42.684;23.252;2024-02-26T03:01:07;28.30;;;25.25;;
11338;SDS011;5724;42.684;23.252;2024-02-26T03:03:33;27.42;;;24.02;;
11338;SDS011;5724;42.684;23.252;2024-02-26T03:05:58;29.25;;;24.58;;
11338;SDS011;5724;42.684;23.252;2024-02-26T03:08:24;27.75;;;23.85;;
11338;SDS011;5724;42.684;23.252;2024-02-26T03:10:51;28.33;;;25.23;;
11338;SDS011;5724;42.684;23.252;2024-02-26T03:13:17;28.10;;;24.95;;
11338;SDS011;5724;42.684;23.252;2024-02-26T03:15:42;27.15;;;23.70;;
11338;SDS011;5724;42.684;23.252;2024-02-26T03:18:08;26.77;;;24.05;;
11338;SDS011;5724;42.684;23.252;2024-02-26T03:20:33;27.38;;;24.63;;
11338;SDS011;5724;42.684;23.252;2024-02-26T03:22:59;29.15;;;26.10;;
11338;SDS011;5724;42.684;23.252;2024-02-26T03:25:24;28.98;;;25.98;;
11338;SDS011;5724;42.684;23.252;2024-02-26T03:27:50;30.30;;;26.80;;
11338;SDS011;5724;42.684;23.252;2024-02-26T03:30:15;32.38;;;26.98;;
11338;SDS011;5724;42.684;23.252;2024-02-26T03:32:41;28.25;;;25.13;;
11338;SDS011;5724;42.684;23.252;2024-02-26T03:35:07;27.58;;;24.73;;
11338;SDS011;5724;42.684;23.252;2024-02-26T03:37:33;29.85;;;25.25;;
11338;SDS011;5724;42.684;23.252;2024-02-26T03:39:58;29.55;;;26.08;;
11338;SDS011;5724;42.684;23.252;2024-02-26T03:42:26;30.85;;;26.83;;
11338;SDS011;5724;42.684;23.252;2024-02-26T03:44:52;35.88;;;28.75;;
11338;SDS011;5724;42.684;23.252;2024-02-26T03:47:19;29.35;;;26.13;;
11338;SDS011;5724;42.684;23.252;2024-02-26T03:49:44;29.08;;;25.10;;
11338;SDS011;5724;42.684;23.252;2024-02-26T03:52:10;27.33;;;24.23;;
11338;SDS011;5724;42.684;23.252;2024-02-26T03:54:35;27.80;;;24.77;;
11338;SDS011;5724;42.684;23.252;2024-02-26T03:57:00;28.40;;;25.23;;
11338;SDS011;5724;42.684;23.252;2024-02-26T03:59:26;29.52;;;26.42;;
11338;SDS011;5724;42.684;23.252;2024-02-26T04:01:52;29.92;;;26.73;;
11338;SDS011;5724;42.684;23.252;2024-02-26T04:04:17;29.80;;;26.08;;
11338;SDS011;5724;42.684;23.252;2024-02-26T04:06:46;28.65;;;25.75;;
11338;SDS011;5724;42.684;23.252;2024-02-26T04:09:15;31.02;;;26.60;;
11338;SDS011;5724;42.684;23.252;2024-02-26T04:11:41;35.00;;;26.67;;
11338;SDS011;5724;42.684;23.252;2024-02-26T04:14:08;31.52;;;25.38;;
11338;SDS011;5724;42.684;23.252;2024-02-26T04:16:37;29.90;;;24.95;;
11338;SDS011;5724;42.684;23.252;2024-02-26T04:19:02;27.58;;;24.58;;
11338;SDS011;5724;42.684;23.252;2024-02-26T04:21:28;27.83;;;24.57;;
11338;SDS011;5724;42.684;23.252;2024-02-26T04:23:54;27.48;;;23.13;;
11338;SDS011;5724;42.684;23.252;2024-02-26T04:26:25;24.73;;;22.02;;
11338;SDS011;5724;42.684;23.252;2024-02-26T04:28:51;27.97;;;24.53;;
11338;SDS011;5724;42.684;23.252;2024-02-26T04:31:18;27.92;;;24.95;;
11338;SDS011;5724;42.684;23.252;2024-02-26T04:33:43;30.88;;;24.77;;
11338;SDS011;5724;42.684;23.252;2024-02-26T04:36:15;27.37;;;24.27;;
11338;SDS011;5724;42.684;23.252;2024-02-26T04:38:42;29.10;;;24.23;;
11338;SDS011;5724;42.684;23.252;2024-02-26T04:41:08;29.45;;;25.40;;
11338;SDS011;5724;42.684;23.252;2024-02-26T04:43:33;29.77;;;25.07;;
11338;SDS011;5724;42.684;23.252;2024-02-26T04:45:59;30.80;;;24.40;;
11338;SDS011;5724;42.684;23.252;2024-02-26T04:48:24;28.63;;;24.63;;
11338;SDS011;5724;42.684;23.252;2024-02-26T04:50:50;27.38;;;24.42;;
11338;SDS011;5724;42.684;23.252;2024-02-26T04:53:15;30.33;;;26.27;;
11338;SDS011;5724;42.684;23.252;2024-02-26T04:55:41;35.63;;;28.08;;
11338;SDS011;5724;42.684;23.252;2024-02-26T04:58:06;36.00;;;28.90;;
11338;SDS011;5724;42.684;23.252;2024-02-26T05:00:32;30.02;;;26.63;;
11338;SDS011;5724;42.684;23.252;2024-02-26T05:02:57;31.57;;;27.03;;
11338;SDS011;5724;42.684;23.252;2024-02-26T05:05:23;32.88;;;26.95;;
11338;SDS011;5724;42.684;23.252;2024-02-26T05:07:48;33.00;;;26.98;;
11338;SDS011;5724;42.684;23.252;2024-02-26T05:10:14;34.97;;;26.03;;
11338;SDS011;5724;42.684;23.252;2024-02-26T05:12:39;25.73;;;22.53;;
11338;SDS011;5724;42.684;23.252;2024-02-26T05:15:07;28.67;;;22.97;;
11338;SDS011;5724;42.684;23.252;2024-02-26T05:17:33;28.57;;;22.80;;
11338;SDS011;5724;42.684;23.252;2024-02-26T05:19:59;26.67;;;23.97;;
11338;SDS011;5724;42.684;23.252;2024-02-26T05:22:24;26.97;;;24.07;;
11338;SDS011;5724;42.684;23.252;2024-02-26T05:24:50;26.73;;;23.83;;
11338;SDS011;5724;42.684;23.252;2024-02-26T05:27:16;24.73;;;22.03;;
11338;SDS011;5724;42.684;23.252;2024-02-26T05:29:42;27.55;;;23.05;;
11338;SDS011;5724;42.684;23.252;2024-02-26T05:32:07;25.77;;;22.23;;
11338;SDS011;5724;42.684;23.252;2024-02-26T05:34:33;27.53;;;24.33;;
11338;SDS011;5724;42.684;23.252;2024-02-26T05:36:58;25.87;;;22.20;;
11338;SDS011;5724;42.684;23.252;2024-02-26T05:39:24;27.17;;;24.27;;
11338;SDS011;5724;42.684;23.252;2024-02-26T05:41:49;27.87;;;24.87;;
11338;SDS011;5724;42.684;23.252;2024-02-26T05:44:15;26.73;;;23.85;;
11338;SDS011;5724;42.684;23.252;2024-02-26T05:46:41;27.75;;;24.75;;
11338;SDS011;5724;42.684;23.252;2024-02-26T05:49:07;27.95;;;24.13;;
11338;SDS011;5724;42.684;23.252;2024-02-26T05:51:32;30.87;;;26.00;;
11338;SDS011;5724;42.684;23.252;2024-02-26T05:53:58;30.60;;;26.47;;
11338;SDS011;5724;42.684;23.252;2024-02-26T05:56:23;27.75;;;24.08;;
11338;SDS011;5724;42.684;23.252;2024-02-26T05:58:49;28.27;;;25.25;;
11338;SDS011;5724;42.684;23.252;2024-02-26T06:01:16;33.58;;;25.67;;
11338;SDS011;5724;42.684;23.252;2024-02-26T06:03:42;28.27;;;25.27;;
11338;SDS011;5724;42.684;23.252;2024-02-26T06:06:08;30.50;;;25.40;;
11338;SDS011;5724;42.684;23.252;2024-02-26T06:08:33;28.98;;;24.77;;
11338;SDS011;5724;42.684;23.252;2024-02-26T06:10:59;31.50;;;25.60;;
11338;SDS011;5724;42.684;23.252;2024-02-26T06:13:24;34.00;;;25.55;;
11338;SDS011;5724;42.684;23.252;2024-02-26T06:15:50;29.85;;;23.60;;
11338;SDS011;5724;42.684;23.252;2024-02-26T06:18:15;28.80;;;25.57;;
11338;SDS011;5724;42.684;23.252;2024-02-26T06:20:41;30.58;;;25.55;;
11338;SDS011;5724;42.684;23.252;2024-02-26T06:23:07;31.00;;;25.45;;
11338;SDS011;5724;42.684;23.252;2024-02-26T06:25:32;30.40;;;25.50;;
11338;SDS011;5724;42.684;23.252;2024-02-26T06:27:58;25.67;;;22.98;;
11338;SDS011;5724;42.684;23.252;2024-02-26T06:30:23;31.88;;;24.80;;
11338;SDS011;5724;42.684;23.252;2024-02-26T06:32:49;29.13;;;24.45;;
11338;SDS011;5724;42.684;23.252;2024-02-26T06:35:14;35.25;;;25.55;;
11338;SDS011;5724;42.684;23.252;2024-02-26T06:37:40;29.00;;;25.98;;
11338;SDS011;5724;42.684;23.252;2024-02-26T06:40:05;32.33;;;25.10;;
11338;SDS011;5724;42.684;23.252;2024-02-26T06:42:32;36.85;;;25.13;;
11338;SDS011;5724;42.684;23.252;2024-02-26T06:44:58;30.13;;;24.05;;
11338;SDS011;5724;42.684;23.252;2024-02-26T06:47:23;34.00;;;24.83;;
11338;SDS011;5724;42.684;23.252;2024-02-26T06:49:49;35.30;;;25.23;;
11338;SDS011;5724;42.684;23.252;2024-02-26T06:52:14;31.95;;;27.20;;
11338;SDS011;5724;42.684;23.252;2024-02-26T06:54:40;38.92;;;28.73;;
11338;SDS011;5724;42.684;23.252;2024-02-26T06:57:06;39.28;;;32.72;;
11338;SDS011;5724;42.684;23.252;2024-02-26T06:59:32;48.35;;;36.60;;
11338;SDS011;5724;42.684;23.252;2024-02-26T07:01:57;41.90;;;33.70;;
11338;SDS011;5724;42.684;23.252;2024-02-26T07:04:23;41.95;;;32.95;;
11338;SDS011;5724;42.684;23.252;2024-02-26T07:06:48;44.78;;;35.95;;
11338;SDS011;5724;42.684;23.252;2024-02-26T07:09:14;53.15;;;40.10;;
11338;SDS011;5724;42.684;23.252;2024-02-26T07:11:40;40.85;;;35.42;;
11338;SDS011;5724;42.684;23.252;2024-02-26T07:14:08;48.63;;;37.75;;
11338;SDS011;5724;42.684;23.252;2024-02-26T07:16:33;49.00;;;36.90;;
11338;SDS011;5724;42.684;23.252;2024-02-26T07:18:59;40.80;;;33.38;;
11338;SDS011;5724;42.684;23.252;2024-02-26T07:21:25;41.08;;;32.75;;
11338;SDS011;5724;42.684;23.252;2024-02-26T07:23:52;37.85;;;30.35;;
11338;SDS011;5724;42.684;23.252;2024-02-26T07:26:18;38.17;;;28.27;;
11338;SDS011;5724;42.684;23.252;2024-02-26T07:28:44;41.00;;;26.80;;
11338;SDS011;5724;42.684;23.252;2024-02-26T07:31:10;28.55;;;25.40;;
11338;SDS011;5724;42.684;23.252;2024-02-26T07:33:35;31.05;;;26.95;;
11338;SDS011;5724;42.684;23.252;2024-02-26T07:36:02;35.50;;;25.55;;
11338;SDS011;5724;42.684;23.252;2024-02-26T07:38:28;28.77;;;25.60;;
11338;SDS011;5724;42.684;23.252;2024-02-26T07:40:54;31.27;;;26.80;;
11338;SDS011;5724;42.684;23.252;2024-02-26T07:43:22;31.38;;;26.45;;
11338;SDS011;5724;42.684;23.252;2024-02-26T07:45:48;32.10;;;28.65;;
11338;SDS011;5724;42.684;23.252;2024-02-26T07:48:13;35.30;;;30.73;;
11338;SDS011;5724;42.684;23.252;2024-02-26T07:50:39;35.20;;;30.27;;
11338;SDS011;5724;42.684;23.252;2024-02-26T07:53:05;34.17;;;28.70;;
11338;SDS011;5724;42.684;23.252;2024-02-26T07:55:31;32.78;;;29.30;;
11338;SDS011;5724;42.684;23.252;2024-02-26T07:57:56;32.22;;;28.80;;
11338;SDS011;5724;42.684;23.252;2024-02-26T08:00:22;45.80;;;30.83;;
11338;SDS011;5724;42.684;23.252;2024-02-26T08:02:47;34.53;;;27.95;;
11338;SDS011;5724;42.684;23.252;2024-02-26T08:05:13;31.25;;;27.95;;
11338;SDS011;5724;42.684;23.252;2024-02-26T08:07:39;36.13;;;28.63;;
11338;SDS011;5724;42.684;23.252;2024-02-26T08:10:04;36.95;;;29.55;;
11338;SDS011;5724;42.684;23.252;2024-02-26T08:12:30;38.25;;;29.10;;
11338;SDS011;5724;42.684;23.252;2024-02-26T08:14:56;52.05;;;39.83;;
11338;SDS011;5724;42.684;23.252;2024-02-26T08:17:23;48.20;;;42.90;;
11338;SDS011;5724;42.684;23.252;2024-02-26T08:19:48;48.03;;;40.67;;
11338;SDS011;5724;42.684;23.252;2024-02-26T08:22:14;40.28;;;36.00;;
11338;SDS011;5724;42.684;23.252;2024-02-26T08:24:43;39.83;;;35.45;;
11338;SDS011;5724;42.684;23.252;2024-02-26T08:27:09;41.03;;;32.22;;
11338;SDS011;5724;42.684;23.252;2024-02-26T08:29:34;39.03;;;28.00;;
11338;SDS011;5724;42.684;23.252;2024-02-26T08:32:00;35.78;;;28.77;;
11338;SDS011;5724;42.684;23.252;2024-02-26T08:34:26;34.85;;;29.27;;
11338;SDS011;5724;42.684;23.252;2024-02-26T08:36:53;34.67;;;28.75;;
11338;SDS011;5724;42.684;23.252;2024-02-26T08:39:18;36.05;;;29.50;;
11338;SDS011;5724;42.684;23.252;2024-02-26T08:41:44;34.25;;;28.00;;
11338;SDS011;5724;42.684;23.252;2024-02-26T08:44:10;32.15;;;28.63;;
11338;SDS011;5724;42.684;23.252;2024-02-26T08:46:36;30.33;;;27.13;;
11338;SDS011;5724;42.684;23.252;2024-02-26T08:49:02;34.75;;;27.52;;
11338;SDS011;5724;42.684;23.252;2024-02-26T08:51:27;35.90;;;27.15;;
11338;SDS011;5724;42.684;23.252;2024-02-26T08:53:53;33.58;;;27.13;;
11338;SDS011;5724;42.684;23.252;2024-02-26T08:56:19;33.35;;;26.48;;
11338;SDS011;5724;42.684;23.252;2024-02-26T08:58:46;30.73;;;25.40;;
11338;SDS011;5724;42.684;23.252;2024-02-26T09:01:16;28.25;;;24.92;;
11338;SDS011;5724;42.684;23.252;2024-02-26T09:03:42;28.83;;;25.55;;
11338;SDS011;5724;42.684;23.252;2024-02-26T09:06:08;32.00;;;26.33;;
11338;SDS011;5724;42.684;23.252;2024-02-26T09:08:33;34.38;;;27.33;;
11338;SDS011;5724;42.684;23.252;2024-02-26T09:11:01;33.97;;;25.85;;
11338;SDS011;5724;42.684;23.252;2024-02-26T09:13:26;30.33;;;26.10;;
11338;SDS011;5724;42.684;23.252;2024-02-26T09:15:52;32.28;;;26.55;;
11338;SDS011;5724;42.684;23.252;2024-02-26T09:18:18;29.17;;;26.33;;
11338;SDS011;5724;42.684;23.252;2024-02-26T09:20:43;34.83;;;25.80;;
11338;SDS011;5724;42.684;23.252;2024-02-26T09:23:09;35.40;;;25.75;;
11338;SDS011;5724;42.684;23.252;2024-02-26T09:25:34;30.60;;;25.35;;
11338;SDS011;5724;42.684;23.252;2024-02-26T09:28:00;27.33;;;24.42;;
11338;SDS011;5724;42.684;23.252;2024-02-26T09:30:27;33.78;;;24.38;;
11338;SDS011;5724;42.684;23.252;2024-02-26T09:32:53;31.85;;;22.60;;
11338;SDS011;5724;42.684;23.252;2024-02-26T09:35:18;30.45;;;25.00;;
11338;SDS011;5724;42.684;23.252;2024-02-26T09:37:44;29.27;;;23.88;;
11338;SDS011;5724;42.684;23.252;2024-02-26T09:40:09;29.77;;;23.95;;
11338;SDS011;5724;42.684;23.252;2024-02-26T09:42:43;27.80;;;22.77;;
11338;SDS011;5724;42.684;23.252;2024-02-26T09:45:11;25.33;;;22.63;;
11338;SDS011;5724;42.684;23.252;2024-02-26T09:47:43;25.13;;;22.42;;
11338;SDS011;5724;42.684;23.252;2024-02-26T09:50:10;28.45;;;22.50;;
11338;SDS011;5724;42.684;23.252;2024-02-26T09:52:38;24.88;;;22.48;;
11338;SDS011;5724;42.684;23.252;2024-02-26T09:55:07;30.55;;;22.63;;
11338;SDS011;5724;42.684;23.252;2024-02-26T09:57:54;29.55;;;21.75;;
11338;SDS011;5724;42.684;23.252;2024-02-26T10:00:21;24.85;;;20.65;;
11338;SDS011;5724;42.684;23.252;2024-02-26T10:02:47;26.00;;;21.23;;
11338;SDS011;5724;42.684;23.252;2024-02-26T10:05:17;23.05;;;20.70;;
11338;SDS011;5724;42.684;23.252;2024-02-26T10:07:46;21.83;;;19.60;;
11338;SDS011;5724;42.684;23.252;2024-02-26T10:10:13;17.90;;;13.30;;
11338;SDS011;5724;42.684;23.252;2024-02-26T10:12:39;12.65;;;10.25;;
11338;SDS011;5724;42.684;23.252;2024-02-26T10:15:05;8.35;;;6.15;;
11338;SDS011;5724;42.684;23.252;2024-02-26T10:17:31;7.03;;;6.32;;
11338;SDS011;5724;42.684;23.252;2024-02-26T10:20:16;5.70;;;5.32;;
11338;SDS011;5724;42.684;23.252;2024-02-26T10:22:43;5.82;;;5.38;;
11338;SDS011;5724;42.684;23.252;2024-02-26T10:25:09;6.45;;;5.85;;
11338;SDS011;5724;42.684;23.252;2024-02-26T10:27:35;6.93;;;6.05;;
11338;SDS011;5724;42.684;23.252;2024-02-26T10:30:04;5.40;;;5.03;;
11338;SDS011;5724;42.684;23.252;2024-02-26T10:32:41;5.68;;;4.95;;
11338;SDS011;5724;42.684;23.252;2024-02-26T10:35:10;5.57;;;5.05;;
11338;SDS011;5724;42.684;23.252;2024-02-26T10:37:35;5.70;;;5.18;;
11338;SDS011;5724;42.684;23.252;2024-02-26T10:40:01;5.75;;;5.25;;
11338;SDS011;5724;42.684;23.252;2024-02-26T10:42:27;5.50;;;5.00;;
11338;SDS011;5724;42.684;23.252;2024-02-26T10:44:53;5.20;;;4.72;;
11338;SDS011;5724;42.684;23.252;2024-02-26T10:47:19;5.45;;;5.07;;
11338;SDS011;5724;42.684;23.252;2024-02-26T10:49:45;5.72;;;4.95;;
11338;SDS011;5724;42.684;23.252;2024-02-26T10:52:13;5.70;;;5.28;;
11338;SDS011;5724;42.684;23.252;2024-02-26T10:54:41;4.97;;;4.30;;
11338;SDS011;5724;42.684;23.252;2024-02-26T10:57:09;4.50;;;4.28;;
11338;SDS011;5724;42.684;23.252;2024-02-26T10:59:36;5.60;;;4.32;;
11338;SDS011;5724;42.684;23.252;2024-02-26T11:02:03;6.00;;;4.75;;
11338;SDS011;5724;42.684;23.252;2024-02-26T11:04:29;4.70;;;4.45;;
11338;SDS011;5724;42.684;23.252;2024-02-26T11:06:56;4.88;;;4.47;;
11338;SDS011;5724;42.684;23.252;2024-02-26T11:09:22;5.45;;;4.90;;
11338;SDS011;5724;42.684;23.252;2024-02-26T11:11:49;5.90;;;5.50;;
11338;SDS011;5724;42.684;23.252;2024-02-26T11:14:19;5.75;;;5.35;;
11338;SDS011;5724;42.684;23.252;2024-02-26T11:16:47;6.10;;;4.68;;
11338;SDS011;5724;42.684;23.252;2024-02-26T11:19:13;6.15;;;5.00;;
11338;SDS011;5724;42.684;23.252;2024-02-26T11:21:39;5.07;;;4.60;;
11338;SDS011;5724;42.684;23.252;2024-02-26T11:24:11;4.95;;;4.55;;
11338;SDS011;5724;42.684;23.252;2024-02-26T11:26:46;5.65;;;5.07;;
11338;SDS011;5724;42.684;23.252;2024-02-26T11:29:24;4.80;;;4.50;;
11338;SDS011;5724;42.684;23.252;2024-02-26T11:31:52;4.90;;;4.57;;
11338;SDS011;5724;42.684;23.252;2024-02-26T11:34:18;9.52;;;5.40;;
11338;SDS011;5724;42.684;23.252;2024-02-26T11:36:44;5.13;;;4.45;;
11338;SDS011;5724;42.684;23.252;2024-02-26T11:39:11;5.22;;;4.80;;
11338;SDS011;5724;42.684;23.252;2024-02-26T11:41:38;5.78;;;5.28;;
11338;SDS011;5724;42.684;23.252;2024-02-26T11:44:04;5.10;;;4.70;;
11338;SDS011;5724;42.684;23.252;2024-02-26T11:46:39;5.55;;;5.03;;
11338;SDS011;5724;42.684;23.252;2024-02-26T11:51:51;5.72;;;5.15;;
11338;SDS011;5724;42.684;23.252;2024-02-26T11:57:25;5.70;;;5.20;;
11338;SDS011;5724;42.684;23.252;2024-02-26T11:59:55;4.85;;;4.47;;
11338;SDS011;5724;42.684;23.252;2024-02-26T12:02:39;5.78;;;5.20;;
11338;SDS011;5724;42.684;23.252;2024-02-26T12:05:15;5.13;;;4.70;;
11338;SDS011;5724;42.684;23.252;2024-02-26T12:07:43;5.57;;;5.07;;
11338;SDS011;5724;42.684;23.252;2024-02-26T12:12:41;5.20;;;4.65;;
11338;SDS011;5724;42.684;23.252;2024-02-26T12:15:07;4.47;;;4.20;;
11338;SDS011;5724;42.684;23.252;2024-02-26T12:17:34;8.68;;;4.28;;
11338;SDS011;5724;42.684;23.252;2024-02-26T12:20:08;5.05;;;4.38;;
11338;SDS011;5724;42.684;23.252;2024-02-26T12:22:38;5.78;;;4.47;;
11338;SDS011;5724;42.684;23.252;2024-02-26T12:25:05;4.72;;;4.43;;
11338;SDS011;5724;42.684;23.252;2024-02-26T12:27:34;17.33;;;12.60;;
11338;SDS011;5724;42.684;23.252;2024-02-26T12:30:00;5.43;;;5.03;;
11338;SDS011;5724;42.684;23.252;2024-02-26T12:32:28;5.32;;;4.55;;
11338;SDS011;5724;42.684;23.252;2024-02-26T12:34:53;6.75;;;5.03;;
11338;SDS011;5724;42.684;23.252;2024-02-26T12:37:19;4.32;;;4.03;;
11338;SDS011;5724;42.684;23.252;2024-02-26T12:39:44;5.93;;;4.70;;
11338;SDS011;5724;42.684;23.252;2024-02-26T12:42:11;6.50;;;4.60;;
11338;SDS011;5724;42.684;23.252;2024-02-26T12:44:37;4.32;;;3.97;;
11338;SDS011;5724;42.684;23.252;2024-02-26T12:47:03;6.47;;;4.85;;
11338;SDS011;5724;42.684;23.252;2024-02-26T12:49:31;4.97;;;4.35;;
11338;SDS011;5724;42.684;23.252;2024-02-26T12:52:17;4.50;;;4.10;;
11338;SDS011;5724;42.684;23.252;2024-02-26T12:54:44;5.95;;;4.38;;
11338;SDS011;5724;42.684;23.252;2024-02-26T12:57:10;5.63;;;5.13;;
11338;SDS011;5724;42.684;23.252;2024-02-26T12:59:37;5.40;;;4.68;;
11338;SDS011;5724;42.684;23.252;2024-02-26T13:02:04;5.75;;;4.10;;
11338;SDS011;5724;42.684;23.252;2024-02-26T13:04:30;4.70;;;4.40;;
11338;SDS011;5724;42.684;23.252;2024-02-26T13:06:57;5.68;;;5.28;;
11338;SDS011;5724;42.684;23.252;2024-02-26T13:09:31;4.70;;;4.40;;
11338;SDS011;5724;42.684;23.252;2024-02-26T13:12:07;4.15;;;3.85;;
11338;SDS011;5724;42.684;23.252;2024-02-26T13:14:34;6.57;;;4.45;;
11338;SDS011;5724;42.684;23.252;2024-02-26T13:17:00;4.88;;;4.57;;
11338;SDS011;5724;42.684;23.252;2024-02-26T13:19:27;4.32;;;3.92;;
11338;SDS011;5724;42.684;23.252;2024-02-26T13:21:53;4.47;;;4.10;;
11338;SDS011;5724;42.684;23.252;2024-02-26T13:24:19;4.25;;;3.95;;
11338;SDS011;5724;42.684;23.252;2024-02-26T13:26:47;4.88;;;4.00;;
11338;SDS011;5724;42.684;23.252;2024-02-26T13:29:19;4.22;;;3.90;;
11338;SDS011;5724;42.684;23.252;2024-02-26T13:31:45;6.63;;;4.22;;
11338;SDS011;5724;42.684;23.252;2024-02-26T13:34:22;5.30;;;4.35;;
11338;SDS011;5724;42.684;23.252;2024-02-26T13:36:56;5.88;;;4.25;;
11338;SDS011;5724;42.684;23.252;2024-02-26T13:39:22;4.25;;;3.95;;
11338;SDS011;5724;42.684;23.252;2024-02-26T13:41:52;4.18;;;3.88;;
11338;SDS011;5724;42.684;23.252;2024-02-26T13:44:19;4.10;;;3.80;;
11338;SDS011;5724;42.684;23.252;2024-02-26T13:46:46;5.40;;;4.90;;
11338;SDS011;5724;42.684;23.252;2024-02-26T13:49:12;4.68;;;3.80;;
11338;SDS011;5724;42.684;23.252;2024-02-26T13:51:41;6.00;;;3.50;;
11338;SDS011;5724;42.684;23.252;2024-02-26T13:54:07;4.40;;;4.10;;
11338;SDS011;5724;42.684;23.252;2024-02-26T13:56:33;4.60;;;4.20;;
11338;SDS011;5724;42.684;23.252;2024-02-26T13:59:00;4.55;;;4.22;;
11338;SDS011;5724;42.684;23.252;2024-02-26T14:01:26;4.68;;;4.28;;
11338;SDS011;5724;42.684;23.252;2024-02-26T14:03:52;4.88;;;4.47;;
11338;SDS011;5724;42.684;23.252;2024-02-26T14:06:22;7.00;;;6.40;;
11338;SDS011;5724;42.684;23.252;2024-02-26T14:08:50;4.72;;;4.43;;
11338;SDS011;5724;42.684;23.252;2024-02-26T14:11:15;4.70;;;4.40;;
11338;SDS011;5724;42.684;23.252;2024-02-26T14:13:41;5.22;;;4.38;;
11338;SDS011;5724;42.684;23.252;2024-02-26T14:16:06;4.75;;;4.20;;
11338;SDS011;5724;42.684;23.252;2024-02-26T14:18:32;6.35;;;4.05;;
11338;SDS011;5724;42.684;23.252;2024-02-26T14:20:57;5.55;;;4.13;;
11338;SDS011;5724;42.684;23.252;2024-02-26T14:23:23;4.53;;;3.63;;
11338;SDS011;5724;42.684;23.252;2024-02-26T14:25:48;5.03;;;3.83;;
11338;SDS011;5724;42.684;23.252;2024-02-26T14:28:14;4.90;;;4.60;;
11338;SDS011;5724;42.684;23.252;2024-02-26T14:30:39;4.90;;;4.55;;
11338;SDS011;5724;42.684;23.252;2024-02-26T14:33:06;9.32;;;6.32;;